createdAt,value
2018-11-13T00:02:07.754Z,85.70
2018-11-13T00:04:41.444Z,85.80
2018-11-13T00:07:15.899Z,85.90
2018-11-13T00:09:50.225Z,85.90
2018-11-13T00:12:24.291Z,86.60
2018-11-13T00:14:58.893Z,85.90
2018-11-13T00:17:33.342Z,85.90
2018-11-13T00:20:10.604Z,86.00
2018-11-13T00:22:44.892Z,86.00
2018-11-13T00:25:19.781Z,86.00
2018-11-13T00:27:54.130Z,86.10
2018-11-13T00:30:27.989Z,86.10
2018-11-13T00:33:01.629Z,86.10
2018-11-13T00:35:35.373Z,86.10
2018-11-13T00:38:09.235Z,86.20
2018-11-13T00:40:42.906Z,86.30
2018-11-13T00:43:16.921Z,86.30
2018-11-13T00:45:51.073Z,86.20
2018-11-13T00:48:25.909Z,86.20
2018-11-13T00:50:59.732Z,86.30
2018-11-13T00:53:34.126Z,86.30
2018-11-13T00:56:07.860Z,86.30
2018-11-13T00:58:41.391Z,86.20
2018-11-13T01:01:22.509Z,86.30
2018-11-13T01:03:56.364Z,86.20
2018-11-13T01:06:30.106Z,86.20
2018-11-13T01:09:06.226Z,86.20
2018-11-13T01:11:40.732Z,86.20
2018-11-13T01:14:15.410Z,86.20
2018-11-13T01:16:49.204Z,86.10
2018-11-13T01:19:23.522Z,86.10
2018-11-13T01:21:57.342Z,86.00
2018-11-13T01:24:31.345Z,86.20
2018-11-13T01:27:05.148Z,86.20
2018-11-13T01:29:39.002Z,86.20
2018-11-13T01:32:12.992Z,86.20
2018-11-13T01:34:47.456Z,86.20
2018-11-13T01:37:21.384Z,86.20
2018-11-13T01:39:55.698Z,86.30
2018-11-13T01:42:29.540Z,86.40
2018-11-13T01:45:05.081Z,86.30
2018-11-13T01:47:39.489Z,86.40
2018-11-13T01:50:13.862Z,86.40
2018-11-13T01:52:47.726Z,86.30
2018-11-13T01:55:21.495Z,86.40
2018-11-13T01:57:55.364Z,86.40
2018-11-13T02:00:28.973Z,86.30
2018-11-13T02:03:03.499Z,86.30
2018-11-13T02:05:37.254Z,86.30
2018-11-13T02:08:11.381Z,86.40
2018-11-13T02:10:45.141Z,86.20
2018-11-13T02:13:19.204Z,86.20
2018-11-13T02:15:53.309Z,86.30
2018-11-13T02:18:27.339Z,86.30
2018-11-13T02:21:01.785Z,86.30
2018-11-13T02:23:36.009Z,86.30
2018-11-13T02:26:10.348Z,86.30
2018-11-13T02:28:44.669Z,86.40
2018-11-13T02:31:19.146Z,86.30
2018-11-13T02:33:53.730Z,86.30
2018-11-13T02:36:28.237Z,86.10
2018-11-13T02:39:03.006Z,86.30
2018-11-13T02:41:37.438Z,86.30
2018-11-13T02:44:11.267Z,86.30
2018-11-13T02:46:45.710Z,86.30
2018-11-13T02:49:19.945Z,86.30
2018-11-13T02:51:54.483Z,86.30
2018-11-13T02:54:28.603Z,86.20
2018-11-13T02:57:03.453Z,86.20
2018-11-13T02:59:37.137Z,86.10
2018-11-13T03:02:10.897Z,86.00
2018-11-13T03:04:45.329Z,86.00
2018-11-13T03:07:19.681Z,86.00
2018-11-13T03:09:54.144Z,86.00
2018-11-13T03:12:28.331Z,86.10
2018-11-13T03:15:02.301Z,86.20
2018-11-13T03:17:36.418Z,86.10
2018-11-13T03:20:12.181Z,86.10
2018-11-13T03:22:46.534Z,86.00
2018-11-13T03:25:21.148Z,86.10
2018-11-13T03:27:55.491Z,86.10
2018-11-13T03:30:29.353Z,86.10
2018-11-13T03:33:03.489Z,86.20
2018-11-13T03:35:37.193Z,86.30
2018-11-13T03:38:11.082Z,86.20
2018-11-13T03:40:45.029Z,86.20
2018-11-13T03:43:18.546Z,86.10
2018-11-13T03:45:52.644Z,86.10
2018-11-13T03:48:26.716Z,86.10
2018-11-13T03:51:00.421Z,86.10
2018-11-13T03:53:34.541Z,86.10
2018-11-13T03:56:08.682Z,86.20
2018-11-13T03:58:42.980Z,86.30
2018-11-13T04:01:16.682Z,86.40
2018-11-13T04:03:50.701Z,86.40
2018-11-13T04:06:24.278Z,86.40
2018-11-13T04:08:58.188Z,86.40
2018-11-13T04:11:31.837Z,86.50
2018-11-13T04:14:06.089Z,86.60
2018-11-13T04:16:40.013Z,86.50
2018-11-13T04:19:13.837Z,86.60
2018-11-13T04:22:08.445Z,86.70
2018-11-13T04:24:42.113Z,86.60
2018-11-13T04:27:16.247Z,86.50
2018-11-13T04:29:50.697Z,86.60
2018-11-13T04:32:24.790Z,86.70
2018-11-13T04:34:58.758Z,86.70
2018-11-13T04:37:32.734Z,86.80
2018-11-13T04:40:10.548Z,86.80
2018-11-13T04:42:46.989Z,86.80
2018-11-13T04:45:22.280Z,86.70
2018-11-13T04:47:56.489Z,86.70
2018-11-13T04:50:30.947Z,86.60
2018-11-13T04:53:05.189Z,86.60
2018-11-13T04:55:38.951Z,86.40
2018-11-13T04:58:13.414Z,86.50
2018-11-13T05:00:47.310Z,86.30
2018-11-13T05:03:21.474Z,86.30
2018-11-13T05:05:55.045Z,86.30
2018-11-13T05:08:29.367Z,86.30
2018-11-13T05:11:03.125Z,86.30
2018-11-13T05:13:37.018Z,86.30
2018-11-13T05:16:11.439Z,86.20
2018-11-13T05:18:45.525Z,86.20
2018-11-13T05:21:19.496Z,86.10
2018-11-13T05:23:54.122Z,86.10
2018-11-13T05:26:28.401Z,86.10
2018-11-13T05:29:01.975Z,86.00
2018-11-13T05:31:35.824Z,85.90
2018-11-13T05:34:09.961Z,86.00
2018-11-13T05:36:44.149Z,86.00
2018-11-13T05:39:17.999Z,86.00
2018-11-13T05:41:52.725Z,86.00
2018-11-13T05:44:26.909Z,86.00
2018-11-13T05:47:00.509Z,86.00
2018-11-13T05:49:34.358Z,86.10
2018-11-13T05:52:08.297Z,86.10
2018-11-13T05:54:42.517Z,86.20
2018-11-13T05:57:16.930Z,86.30
2018-11-13T05:59:51.323Z,86.20
2018-11-13T06:02:25.178Z,85.70
2018-11-13T06:04:58.998Z,86.10
2018-11-13T06:07:32.917Z,86.10
2018-11-13T06:10:08.043Z,86.10
2018-11-13T06:12:42.641Z,86.20
2018-11-13T06:15:16.918Z,86.30
2018-11-13T06:17:50.541Z,86.30
2018-11-13T06:20:24.187Z,86.40
2018-11-13T06:22:58.248Z,86.40
2018-11-13T06:25:32.148Z,86.40
2018-11-13T06:28:06.008Z,86.30
2018-11-13T06:30:40.602Z,86.40
2018-11-13T06:33:14.953Z,86.40
2018-11-13T06:35:48.557Z,86.40
2018-11-13T06:38:22.837Z,86.50
2018-11-13T06:40:57.052Z,86.70
2018-11-13T06:43:31.363Z,87.50
2018-11-13T06:46:05.861Z,86.80
2018-11-13T06:48:39.389Z,86.90
2018-11-13T06:51:12.889Z,87.00
2018-11-13T06:53:57.996Z,87.10
2018-11-13T06:56:31.722Z,87.20
2018-11-13T06:59:05.793Z,87.20
2018-11-13T07:01:39.596Z,87.10
2018-11-13T07:04:13.791Z,87.10
2018-11-13T07:06:48.153Z,87.10
2018-11-13T07:09:22.569Z,87.10
2018-11-13T07:11:56.509Z,87.10
2018-11-13T07:14:30.108Z,87.10
2018-11-13T07:17:04.693Z,87.10
2018-11-13T07:19:39.318Z,87.10
2018-11-13T07:22:13.405Z,87.20
2018-11-13T07:24:47.705Z,87.50
2018-11-13T07:27:21.374Z,87.70
2018-11-13T07:29:55.104Z,87.80
2018-11-13T07:32:29.153Z,87.80
2018-11-13T07:35:03.313Z,87.70
2018-11-13T07:37:37.372Z,87.70
2018-11-13T07:40:11.010Z,87.80
2018-11-13T07:42:44.579Z,87.80
2018-11-13T07:45:19.689Z,87.90
2018-11-13T07:47:54.151Z,88.00
2018-11-13T07:50:27.908Z,88.00
2018-11-13T07:53:02.309Z,88.10
2018-11-13T07:55:36.562Z,88.10
2018-11-13T07:58:10.521Z,88.10
2018-11-13T08:00:44.261Z,88.00
2018-11-13T08:03:33.799Z,88.10
2018-11-13T08:06:07.753Z,88.90
2018-11-13T08:08:41.512Z,88.20
2018-11-13T08:11:15.652Z,88.20
2018-11-13T08:13:49.594Z,88.20
2018-11-13T08:16:23.434Z,88.10
2018-11-13T08:18:57.350Z,88.10
2018-11-13T08:21:31.108Z,88.00
2018-11-13T08:24:05.043Z,88.00
2018-11-13T08:26:39.450Z,88.00
2018-11-13T08:29:13.381Z,87.90
2018-11-13T08:31:46.965Z,88.70
2018-11-13T08:37:01.857Z,87.90
2018-11-13T08:39:36.139Z,87.90
2018-11-13T08:42:09.690Z,88.00
2018-11-13T08:44:44.096Z,88.00
2018-11-13T08:47:17.731Z,87.90
2018-11-13T08:49:51.648Z,86.70
2018-11-13T08:52:25.453Z,86.90
2018-11-13T08:54:59.371Z,86.90
2018-11-13T08:57:33.685Z,86.80
2018-11-13T09:00:09.449Z,86.70
2018-11-13T09:02:43.805Z,86.90
2018-11-13T09:05:18.039Z,86.80
2018-11-13T09:07:52.324Z,86.70
2018-11-13T09:10:26.404Z,86.40
2018-11-13T09:13:00.471Z,86.00
2018-11-13T09:15:34.345Z,85.80
2018-11-13T09:18:08.619Z,85.90
2018-11-13T09:20:42.568Z,86.30
2018-11-13T09:23:17.106Z,86.30
2018-11-13T09:25:51.567Z,86.30
2018-11-13T09:28:25.181Z,85.90
2018-11-13T09:30:59.677Z,86.00
2018-11-13T09:33:33.210Z,86.00
2018-11-13T09:36:06.777Z,85.70
2018-11-13T09:38:40.757Z,85.30
2018-11-13T09:41:14.481Z,85.60
2018-11-13T09:43:48.565Z,85.40
2018-11-13T09:46:22.546Z,85.80
2018-11-13T09:48:56.499Z,85.60
2018-11-13T09:51:30.470Z,85.70
2018-11-13T09:54:04.568Z,85.40
2018-11-13T09:56:38.895Z,85.60
2018-11-13T09:59:13.638Z,85.20
2018-11-13T10:01:47.892Z,84.50
2018-11-13T10:04:21.597Z,85.00
2018-11-13T10:06:55.584Z,84.70
2018-11-13T10:09:29.088Z,84.80
2018-11-13T10:12:03.584Z,84.70
2018-11-13T10:14:37.796Z,84.10
2018-11-13T10:17:12.193Z,83.90
2018-11-13T10:19:45.833Z,84.30
2018-11-13T10:22:20.435Z,84.10
2018-11-13T10:24:54.686Z,83.20
2018-11-13T10:27:28.780Z,83.50
2018-11-13T10:30:04.237Z,83.20
2018-11-13T10:32:38.418Z,83.50
2018-11-13T10:35:13.074Z,83.20
2018-11-13T10:37:47.673Z,82.70
2018-11-13T10:40:22.314Z,82.70
2018-11-13T10:42:55.947Z,81.90
2018-11-13T10:45:30.430Z,81.70
2018-11-13T10:48:04.587Z,82.10
2018-11-13T10:50:39.045Z,82.40
2018-11-13T10:53:13.127Z,82.00
2018-11-13T10:55:47.129Z,82.10
2018-11-13T10:58:21.253Z,82.20
2018-11-13T11:00:58.535Z,81.90
2018-11-13T11:03:39.097Z,82.40
2018-11-13T11:06:12.922Z,82.50
2018-11-13T11:08:46.422Z,82.10
2018-11-13T11:11:20.334Z,81.70
2018-11-13T11:13:54.891Z,81.80
2018-11-13T11:16:28.545Z,81.70
2018-11-13T11:19:02.513Z,82.30
2018-11-13T11:21:42.826Z,81.70
2018-11-13T11:24:17.402Z,81.50
2018-11-13T11:26:51.663Z,80.30
2018-11-13T11:29:25.774Z,81.00
2018-11-13T11:31:59.589Z,80.80
2018-11-13T11:34:35.385Z,80.70
2018-11-13T11:37:09.043Z,80.80
2018-11-13T11:39:42.617Z,80.30
2018-11-13T11:42:16.728Z,80.40
2018-11-13T11:44:50.326Z,80.90
2018-11-13T11:47:24.097Z,80.30
2018-11-13T11:49:58.216Z,79.40
2018-11-13T11:52:31.941Z,79.00
2018-11-13T11:55:06.695Z,77.70
2018-11-13T11:57:40.544Z,76.20
2018-11-13T12:00:17.594Z,77.60
2018-11-13T12:02:51.369Z,77.80
2018-11-13T12:05:25.121Z,78.00
2018-11-13T12:07:59.373Z,76.70
2018-11-13T12:10:33.285Z,75.70
2018-11-13T12:13:07.044Z,75.80
2018-11-13T12:15:40.823Z,76.30
2018-11-13T12:18:14.559Z,76.20
2018-11-13T12:20:48.546Z,75.10
2018-11-13T12:23:22.409Z,75.60
2018-11-13T12:25:56.580Z,75.90
2018-11-13T12:28:30.889Z,76.00
2018-11-13T12:31:05.138Z,76.10
2018-11-13T12:33:39.371Z,74.80
2018-11-13T12:36:13.190Z,75.50
2018-11-13T12:38:47.282Z,75.60
2018-11-13T12:41:21.217Z,74.80
2018-11-13T12:43:55.728Z,74.80
2018-11-13T12:46:29.847Z,74.50
2018-11-13T12:49:03.906Z,75.10
2018-11-13T12:51:43.333Z,74.20
2018-11-13T12:54:17.209Z,73.90
2018-11-13T12:56:51.551Z,74.70
2018-11-13T12:59:25.263Z,74.20
2018-11-13T13:01:59.460Z,73.30
2018-11-13T13:04:33.572Z,72.50
2018-11-13T13:07:08.432Z,74.00
2018-11-13T13:09:42.441Z,74.00
2018-11-13T13:12:16.464Z,74.10
2018-11-13T13:14:50.254Z,74.20
2018-11-13T13:17:24.532Z,74.20
2018-11-13T13:19:58.469Z,73.70
2018-11-13T13:22:32.637Z,74.20
2018-11-13T13:25:08.890Z,73.80
2018-11-13T13:27:43.138Z,74.40
2018-11-13T13:30:20.046Z,74.80
2018-11-13T13:32:54.287Z,74.50
2018-11-13T13:35:44.945Z,73.20
2018-11-13T13:38:18.573Z,72.60
2018-11-13T13:40:54.020Z,71.40
2018-11-13T13:43:29.477Z,71.80
2018-11-13T13:46:03.865Z,72.80
2018-11-13T13:48:37.678Z,72.30
2018-11-13T13:51:12.165Z,72.20
2018-11-13T13:53:46.683Z,72.40
2018-11-13T13:56:20.935Z,72.10
2018-11-13T13:58:54.641Z,71.60
2018-11-13T14:01:29.117Z,71.50
2018-11-13T14:04:02.909Z,71.90
2018-11-13T14:06:36.805Z,71.20
2018-11-13T14:09:11.309Z,72.10
2018-11-13T14:11:45.415Z,72.00
2018-11-13T14:14:19.365Z,71.80
2018-11-13T14:16:53.432Z,71.50
2018-11-13T14:19:27.172Z,72.00
2018-11-13T14:22:01.058Z,71.20
2018-11-13T14:24:34.860Z,71.30
2018-11-13T14:27:09.068Z,70.90
2018-11-13T14:29:43.269Z,70.80
2018-11-13T14:32:17.278Z,71.50
2018-11-13T14:34:51.550Z,71.10
2018-11-13T14:37:25.484Z,70.60
2018-11-13T14:39:59.475Z,71.10
2018-11-13T14:42:33.553Z,71.10
2018-11-13T14:45:08.261Z,71.00
2018-11-13T14:47:43.726Z,71.60
2018-11-13T14:50:19.395Z,71.10
2018-11-13T14:52:53.832Z,71.10
2018-11-13T14:55:34.042Z,70.50
2018-11-13T14:58:09.358Z,70.90
2018-11-13T15:00:43.435Z,71.20
2018-11-13T15:03:17.482Z,71.40
2018-11-13T15:05:51.744Z,71.30
2018-11-13T15:08:25.452Z,71.50
2018-11-13T15:10:59.529Z,71.40
2018-11-13T15:13:33.397Z,71.70
2018-11-13T15:16:07.389Z,71.50
2018-11-13T15:18:41.536Z,71.70
2018-11-13T15:21:16.017Z,71.60
2018-11-13T15:23:50.105Z,71.50
2018-11-13T15:26:23.968Z,71.70
2018-11-13T15:28:57.965Z,71.70
2018-11-13T15:31:31.562Z,72.20
2018-11-13T15:34:05.530Z,71.50
2018-11-13T15:36:39.536Z,71.80
2018-11-13T15:39:13.734Z,72.20
2018-11-13T15:41:48.335Z,71.70
2018-11-13T15:44:22.396Z,71.70
2018-11-13T15:46:56.462Z,71.70
2018-11-13T15:49:30.595Z,71.80
2018-11-13T15:52:04.764Z,71.80
2018-11-13T15:54:38.377Z,71.70
2018-11-13T15:57:12.693Z,71.80
2018-11-13T15:59:46.474Z,72.00
2018-11-13T16:02:20.564Z,72.20
2018-11-13T16:04:55.040Z,71.90
2018-11-13T16:07:28.913Z,72.00
2018-11-13T16:10:03.422Z,72.10
2018-11-13T16:12:37.583Z,72.20
2018-11-13T16:15:11.612Z,72.20
2018-11-13T16:17:46.050Z,72.20
2018-11-13T16:20:20.275Z,72.30
2018-11-13T16:22:54.242Z,72.30
2018-11-13T16:25:28.241Z,72.30
2018-11-13T16:28:02.360Z,72.30
2018-11-13T16:30:37.517Z,72.30
2018-11-13T16:33:11.562Z,72.40
2018-11-13T16:35:45.417Z,72.60
2018-11-13T16:38:19.464Z,72.60
2018-11-13T16:40:53.555Z,72.60
2018-11-13T16:43:27.556Z,72.50
2018-11-13T16:46:01.556Z,72.80
2018-11-13T16:48:35.248Z,72.90
2018-11-13T16:51:09.365Z,72.90
2018-11-13T16:53:49.039Z,73.00
2018-11-13T16:56:22.814Z,73.10
2018-11-13T16:58:56.582Z,72.90
2018-11-13T17:01:31.125Z,72.40
2018-11-13T17:04:06.227Z,73.00
2018-11-13T17:06:40.675Z,73.00
2018-11-13T17:09:14.764Z,73.10
2018-11-13T17:11:48.619Z,73.30
2018-11-13T17:14:22.571Z,73.20
2018-11-13T17:16:56.300Z,73.20
2018-11-13T17:19:30.737Z,73.30
2018-11-13T17:22:05.131Z,73.10
2018-11-13T17:24:38.729Z,73.20
2018-11-13T17:27:13.067Z,73.30
2018-11-13T17:29:47.121Z,73.50
2018-11-13T17:32:21.297Z,73.70
2018-11-13T17:34:55.501Z,73.60
2018-11-13T17:37:29.753Z,73.60
2018-11-13T17:40:06.575Z,73.60
2018-11-13T17:42:40.904Z,73.70
2018-11-13T17:45:17.750Z,73.70
2018-11-13T17:47:51.846Z,73.80
2018-11-13T17:50:27.033Z,73.80
2018-11-13T17:53:01.112Z,73.90
2018-11-13T17:55:34.749Z,74.00
2018-11-13T17:58:11.017Z,73.90
2018-11-13T18:00:46.548Z,74.00
2018-11-13T18:03:20.597Z,74.00
2018-11-13T18:05:54.902Z,74.10
2018-11-13T18:08:28.805Z,74.00
2018-11-13T18:11:02.559Z,74.10
2018-11-13T18:13:36.317Z,74.00
2018-11-13T18:16:10.705Z,74.10
2018-11-13T18:18:44.741Z,74.20
2018-11-13T18:21:18.865Z,74.30
2018-11-13T18:23:52.793Z,74.70
2018-11-13T18:26:26.961Z,74.50
2018-11-13T18:29:00.973Z,74.60
2018-11-13T18:31:35.054Z,74.30
2018-11-13T18:34:08.749Z,74.30
2018-11-13T18:36:42.994Z,74.20
2018-11-13T18:39:17.109Z,74.60
2018-11-13T18:41:51.261Z,75.10
2018-11-13T18:44:25.239Z,75.20
2018-11-13T18:46:59.217Z,74.40
2018-11-13T18:49:33.058Z,74.50
2018-11-13T18:52:06.896Z,74.70
2018-11-13T18:54:40.819Z,74.70
2018-11-13T18:57:15.152Z,75.00
2018-11-13T18:59:48.789Z,75.10
2018-11-13T19:02:22.900Z,75.10
2018-11-13T19:04:56.717Z,75.00
2018-11-13T19:07:30.517Z,75.10
2018-11-13T19:10:09.139Z,74.90
2018-11-13T19:12:43.571Z,74.70
2018-11-13T19:15:17.762Z,74.70
2018-11-13T19:17:52.477Z,74.80
2018-11-13T19:20:26.765Z,74.80
2018-11-13T19:23:00.560Z,74.90
2018-11-13T19:25:34.934Z,75.10
2018-11-13T19:28:09.136Z,75.20
2018-11-13T19:30:42.885Z,75.30
2018-11-13T19:33:16.960Z,75.30
2018-11-13T19:35:51.000Z,75.10
2018-11-13T19:38:24.918Z,75.30
2018-11-13T19:40:58.437Z,75.10
2018-11-13T19:43:32.614Z,75.10
2018-11-13T19:46:06.829Z,75.30
2018-11-13T19:48:40.490Z,75.30
2018-11-13T19:51:14.544Z,76.10
2018-11-13T19:53:48.220Z,75.50
2018-11-13T19:56:22.177Z,75.40
2018-11-13T19:58:56.141Z,75.40
2018-11-13T20:01:30.626Z,75.50
2018-11-13T20:04:04.836Z,75.60
2018-11-13T20:06:38.411Z,75.50
2018-11-13T20:09:12.641Z,75.50
2018-11-13T20:11:46.586Z,75.60
2018-11-13T20:14:20.086Z,75.80
2018-11-13T20:16:54.465Z,75.90
2018-11-13T20:19:28.501Z,76.00
2018-11-13T20:22:02.173Z,76.10
2018-11-13T20:24:36.129Z,76.00
2018-11-13T20:27:10.080Z,76.00
2018-11-13T20:29:44.144Z,76.00
2018-11-13T20:32:17.787Z,77.10
2018-11-13T20:34:51.433Z,77.30
2018-11-13T20:37:25.136Z,77.40
2018-11-13T20:39:59.015Z,77.40
2018-11-13T20:42:32.805Z,77.60
2018-11-13T20:45:07.525Z,77.70
2018-11-13T20:47:41.866Z,77.70
2018-11-13T20:50:17.577Z,77.60
2018-11-13T20:52:51.885Z,77.60
2018-11-13T20:55:26.126Z,77.50
2018-11-13T20:58:00.050Z,77.50
2018-11-13T21:00:35.058Z,77.60
2018-11-13T21:03:08.974Z,77.60
2018-11-13T21:05:43.012Z,77.70
2018-11-13T21:08:17.557Z,77.70
2018-11-13T21:10:56.078Z,77.60
2018-11-13T21:13:30.459Z,77.60
2018-11-13T21:16:04.171Z,77.50
2018-11-13T21:18:38.276Z,77.60
2018-11-13T21:21:12.167Z,78.30
2018-11-13T21:23:46.674Z,77.50
2018-11-13T21:26:30.175Z,77.50
2018-11-13T21:29:04.670Z,77.40
2018-11-13T21:31:38.565Z,77.40
2018-11-13T21:34:12.651Z,77.50
2018-11-13T21:36:47.238Z,77.70
2018-11-13T21:39:22.048Z,77.90
2018-11-13T21:41:56.537Z,78.20
2018-11-13T21:44:30.813Z,78.20
2018-11-13T21:47:04.618Z,78.30
2018-11-13T21:49:38.649Z,78.30
2018-11-13T21:52:12.421Z,78.10
2018-11-13T21:54:46.254Z,78.00
2018-11-13T21:57:19.997Z,78.10
2018-11-13T21:59:53.873Z,78.20
2018-11-13T22:02:27.870Z,78.30
2018-11-13T22:05:01.903Z,78.20
2018-11-13T22:07:36.253Z,78.20
2018-11-13T22:10:11.255Z,78.40
2018-11-13T22:12:45.336Z,78.50
2018-11-13T22:15:20.418Z,78.60
2018-11-13T22:17:54.166Z,79.20
2018-11-13T22:20:27.899Z,78.60
2018-11-13T22:23:01.601Z,78.80
2018-11-13T22:25:35.198Z,79.00
2018-11-13T22:28:10.068Z,79.10
2018-11-13T22:30:43.405Z,79.40
2018-11-13T22:33:17.702Z,79.20
2018-11-13T22:35:51.394Z,79.40
2018-11-13T22:38:25.385Z,79.40
2018-11-13T22:43:39.958Z,80.00
2018-11-13T22:46:13.999Z,80.00
2018-11-13T22:48:48.117Z,80.10
2018-11-13T22:51:22.147Z,80.20
2018-11-13T22:53:56.405Z,80.40
2018-11-13T22:56:30.303Z,80.50
2018-11-13T22:59:04.320Z,80.80
2018-11-13T23:01:38.580Z,81.00
2018-11-13T23:04:12.703Z,80.80
2018-11-13T23:06:47.120Z,80.90
2018-11-13T23:09:28.156Z,81.10
2018-11-13T23:12:02.752Z,80.90
2018-11-13T23:14:36.659Z,81.30
2018-11-13T23:17:10.726Z,81.30
2018-11-13T23:19:45.014Z,81.40
2018-11-13T23:22:19.117Z,81.30
2018-11-13T23:24:53.180Z,81.70
2018-11-13T23:27:27.182Z,81.80
2018-11-13T23:30:01.474Z,81.80
2018-11-13T23:32:35.733Z,81.80
2018-11-13T23:35:10.521Z,82.00
2018-11-13T23:37:46.257Z,82.00
2018-11-13T23:40:21.065Z,82.20
2018-11-13T23:42:54.701Z,82.00
2018-11-13T23:45:28.548Z,81.80
2018-11-13T23:48:02.588Z,82.20
2018-11-13T23:50:36.856Z,82.10
2018-11-13T23:53:10.310Z,82.20
2018-11-13T23:55:44.188Z,82.20
2018-11-13T23:58:25.179Z,82.30
